Lincoln, KS

4:34 PM CDT on August 23, 2016 (GMT -0500)
Rural Lincoln County | | Change Station

Elev 1631 ft 38.94 °N, 98.27 °W | Updated 3 seconds ago

Clear
Clear
90.9 °F
Feels Like 89 °F
N
25.5
Wind Variable Wind from South
Gusts 30.0 mph

Today
High -- | Low -- °F
--% Chance of Precip.
Yesterday
High -- | Low -- °F
Precip. -- in
Pressure 29.79 in
Visibility 10.0 miles
Clouds Clear
Heat Index 89 °F
Dew Point 56 °F
Humidity 31%
Rainfall 0.00 in
Snow Depth Not available.
6:53 AM 8:15 PM
Waning Gibbous, 64% visible
METAR KSLN 232053Z 17023G35KT 10SM CLR 34/21 A2984 RMK AO2 PK WND 20035/2047 SLP088 T03390206 56011
Pressure 29.79 in
Visibility 10.0 miles
Clouds Clear
Heat Index 89 °F
Dew Point 56 °F
Humidity 31%
Rainfall 0.00 in
Snow Depth Not available.
6:53 AM 8:15 PM
Waning Gibbous, 64% visible
METAR KSLN 232053Z 17023G35KT 10SM CLR 34/21 A2984 RMK AO2 PK WND 20035/2047 SLP088 T03390206 56011

10-Day Weather Forecast

Almanac

Astronomy

Aug. 23, 2016 Rise Set
Actual Time
Civil Twilight
Nautical Twilight
Astronomical Twilight
Moon
Length of Visible Light
Length of Day
Tomorrow will be .
, % of the Moon is Illuminated

Today's Extremes

State Highs State Lows

Community

WunderPhotos

Upload Photos

1,934,470 photos uploaded!

WunderBlog® & News

Nearby

Air Quality

  Air Quality AQ Index Pollutant
Not available.

Snow Depth

Station Depth Elevation

Earthquake Activity

City Distance Mag. Time & Date
Minimum magnitude displayed is 2.5.

Coastal Water Temperatures

Place Temperature

Stations

Nearby Weather Stations

Station Location Temp. Windchill Dew Point Humidity Wind Precip. Elev Updated Type
                   

Watches & Warnings

There are currently no watches in effect.